HTDO

Details ICAO HTDO (DOD)
Name DODOMA
Region Tanzania
Timezone Africa/Dar_es_Salaam (UTC+3.0)
Plans Departing 3
Arriving 7
Stats Elevation 3,637 ft / 1,109 m (AMSL)
Location -6.170434° 35.752577°
Runways 1
Magnetic Variation 0.931° W
Sunrise 2017-12-17 03:20:04 UTC / 2017-12-17 06:20:04 Local
Sunset 2017-12-17 15:48:47 UTC / 2017-12-17 18:48:47 Local
Advertisement - Login to hide

Runways

ID Width Length Bearing (true) Bearing (mag) Surface Threshold Offset Overrun Length
10 98 ft / 30 m 6,415 ft / 1,955 m 91.55° 92.48° Asphalt 0 ft / 0 m 0 ft / 0 m
28 98 ft / 30 m 6,415 ft / 1,955 m 271.55° 272.48° Asphalt 328 ft / 100 m 0 ft / 0 m

Map

Weather


0- 5 10 15 20 25 30 35+ Temperature / ° C

Clouds and Precipitation
Forecast for 2017-12-17 12:00 UTC. Updated an hour ago

Ground ~20,000 ft ~40,000 ft Winds

METAR

HTDO 171100Z 11010KT 9999 SCT030 FEW031CB 31/15 Q1014 NOSIG

TAF

HTDO 171100Z 1712/1718 12012KT 9999 SCT032 FEW034CB

Frequencies

Tower 119.20 MHz TWR
Approach 119.20 MHz APP
Warning: Do not use this data for real-world aviation or navigation. No guarantee of current accuracy is given.